Elkins-Randolph Co-Jennings Randolph Field
KEKN : now visible

Airfield :











YOU CAN JOIN US ON...

 
LOGIN :

Register | Disclaimer

   EN    FR    IT 

 









Legend :    VFR   Marginal VFR   IFR   Intensive IFR   Very Intensive IFR
Visi :
Ceiling :
>= 8 km
>= 3000ft
5 to 8 km
1000 to 3000 ft
1500m to 5 km
500 to 1000 ft
800 to 1500m
200 to 500 ft
< 800m
< 200 ft
Symbols :   Thunderstorms  Fog  Heavy snow  Heavy precipitations  Wind > 20 kt






- Airport Elevation : 1987 ft


KEKN - Elkins-Randolph Co-Jennings Randolph Field

CURRENT METAR :
  • 080551Z AUTO 25008G21KT 10SM FEW044 SCT075 SCT110 20/11 A2973 RMK AO2 SLP057 60002 T02000111 10211 20100 56015

EXPIRED METARs :
  • 080451Z AUTO 00000KT 10SM FEW048 FEW060 11/08 A2973 RMK AO2 SLP068 T01060083 402110050
  • 080351Z AUTO 00000KT 10SM FEW060 12/09 A2975 RMK AO2 SLP072 T01170089

TAF KEKN
Valid from the 08 at 06:00 until the 09 at 06:00 UTC


080547Z 0806/0906 20005KT P6SM BKN070
FM080800 24010KT P6SM VCTS OVC045CB
FM080830 31020G35KT 3SM TSRA BKN025CB OVC045
FM080930 28010KT P6SM -SHRA VCTS SCT020CB OVC045
FM081000 28009KT P6SM BKN045
FM081400 29012G20KT P6SM FEW050
FM082300 31004KT P6SM FEW250



MET'MAP, your aeronautical weather chart ! - Copyright ORBIFLY December 2007 - Disclaimer

ORBIFLY MET'MAP TEAM :

Programming & Development : Alexandra Zaïnal
Concept & original design : Baudouin d'Aumeries
Assistance for programming : Marc-Olivier Méhu
Technical & hardware support : Manuel Goepfert

Contact : metmap@orbifly.com




SOURCES & CREDITS :

   NOAA       Earth
Advisory